Terminal Aerodrome Forecast
Issued by NWS Boston, MA

Home | Current Version | Previous Version | Text Only | Print | Product List | Glossary On
Versions: 1 2 3 4 5 6 7 8 9 10 11 12 13 14 15 16 17 18 19 20 21 22 23 24 25 26 27 28 29 30 31 32 33 34 35 36 37 38 39 40 41 42 43 44 45 46 47 48
000
FTUS41 KBOX 280536
TAFBDL
TAF
KBDL 280536Z 2806/2912 19007KT P6SM BKN010
     FM280800 19005KT 4SM BR BKN006
     FM281100 19006KT P6SM FEW020 BKN060
     FM281700 21008KT P6SM BKN045
     FM282300 26005KT P6SM SCT045
     FM290200 32004KT P6SM FEW045=

USA.gov is the U.S. government's official web portal to all federal, state and local government web resources and services.